Time;durP1;ratioP1;P1;durP2;ratioP2;P2;SDS_P1;SDS_P2;PMS_P1;PMS_P2;Temp;Humidity;BMP_temperature;BMP_pressure;BME280_temperature;BME280_humidity;BME280_pressure;Samples;Min_cycle;Max_cycle;Signal;HPM_P1;HPM_P2
2023/09/16 00:01:21;;;;;;;15.55;13.07;;;;;;;-143.21;70.38;71691.47;5070538;28;20201;-81
2023/09/16 00:03:48;;;;;;;18.92;13.48;;;;;;;-143.21;70.00;71691.47;5071754;28;20636;-82
2023/09/16 00:06:15;;;;;;;17.10;13.23;;;;;;;-143.21;69.83;71691.47;5068340;28;20233;-82
2023/09/16 00:08:45;;;;;;;17.38;13.32;;;;;;;-143.21;69.55;71691.47;5071738;28;20213;-84
2023/09/16 00:11:12;;;;;;;21.20;13.38;;;;;;;-143.21;69.69;71697.41;5071979;28;21018;-83
2023/09/16 00:13:41;;;;;;;17.75;12.63;;;;;;;-143.21;70.30;71695.44;5071348;28;20204;-82
2023/09/16 00:16:12;;;;;;;19.00;12.77;;;;;;;-143.21;70.18;71689.47;5071666;28;20727;-83
2023/09/16 00:18:38;;;;;;;18.60;12.93;;;;;;;-143.21;70.11;71697.41;5071281;28;20201;-82
2023/09/16 00:21:05;;;;;;;17.33;13.43;;;;;;;-143.21;70.21;71695.44;5071287;28;20228;-82
2023/09/16 00:23:32;;;;;;;18.65;13.65;;;;;;;-143.21;70.37;71693.44;5071278;28;20569;-82
2023/09/16 00:25:59;;;;;;;21.50;12.93;;;;;;;-143.21;70.65;71701.38;5071417;28;20199;-82
2023/09/16 00:28:26;;;;;;;19.92;13.52;;;;;;;-143.21;70.74;71701.38;5071564;28;20194;-82
2023/09/16 00:30:53;;;;;;;21.55;13.27;;;;;;;-143.21;70.73;71703.34;5071353;28;20201;-82
2023/09/16 00:33:21;;;;;;;17.80;13.45;;;;;;;-143.21;70.36;71701.38;5070779;28;20209;-82
2023/09/16 00:35:48;;;;;;;19.23;12.77;;;;;;;-143.21;70.46;71711.28;5071164;28;20248;-82
2023/09/16 00:38:16;;;;;;;18.23;12.85;;;;;;;-143.21;70.40;71713.28;5072430;28;20271;-82
2023/09/16 00:40:43;;;;;;;16.88;13.27;;;;;;;-143.21;70.23;71705.34;5071416;28;20229;-83
2023/09/16 00:43:10;;;;;;;16.33;12.80;;;;;;;-143.21;70.51;71691.47;5071054;28;20201;-82
2023/09/16 00:45:37;;;;;;;16.25;13.20;;;;;;;-143.21;70.61;71695.44;5071388;28;20213;-83
2023/09/16 00:48:04;;;;;;;19.55;13.38;;;;;;;-143.21;70.81;71705.34;5071292;28;20209;-83
2023/09/16 00:50:34;;;;;;;20.35;12.25;;;;;;;-143.21;70.41;71703.34;5070089;28;20571;-83
2023/09/16 00:53:00;;;;;;;19.02;13.48;;;;;;;-143.21;70.85;71697.41;5070611;28;20198;-83
2023/09/16 00:55:28;;;;;;;18.95;13.00;;;;;;;-143.21;70.74;71693.44;5069461;28;20197;-83
2023/09/16 00:57:57;;;;;;;16.95;13.20;;;;;;;-143.21;70.34;71691.47;5068611;28;20205;-83
2023/09/16 01:00:26;;;;;;;18.85;14.02;;;;;;;-143.21;70.18;71695.44;5070416;28;20259;-83
2023/09/16 01:02:54;;;;;;;15.27;12.32;;;;;;;-143.21;70.84;71705.34;5070830;28;20201;-83
2023/09/16 01:05:21;;;;;;;20.50;13.45;;;;;;;-143.21;71.02;71711.28;5070677;28;20264;-83
2023/09/16 01:07:50;;;;;;;17.27;13.18;;;;;;;-143.21;71.24;71721.22;5070034;28;20209;-82
2023/09/16 01:10:20;;;;;;;20.55;14.15;;;;;;;-143.21;71.61;71725.16;5066470;28;20280;-82
2023/09/16 01:12:48;;;;;;;24.25;14.00;;;;;;;-143.21;71.55;71717.25;5069530;28;20744;-82
2023/09/16 01:15:18;;;;;;;17.90;13.88;;;;;;;-143.21;71.73;71715.25;5070672;28;20589;-83
2023/09/16 01:17:52;;;;;;;21.63;13.60;;;;;;;-143.21;71.83;71713.28;5070777;28;20224;-83
2023/09/16 01:20:19;;;;;;;20.08;13.85;;;;;;;-143.21;71.74;71703.34;5070728;28;20667;-83
2023/09/16 01:22:48;;;;;;;25.27;15.02;;;;;;;-143.21;71.98;71703.34;5070038;28;20239;-83
2023/09/16 01:25:17;;;;;;;17.75;13.68;;;;;;;-143.21;71.70;71711.28;5067000;28;20220;-83
2023/09/16 01:27:44;;;;;;;18.08;14.00;;;;;;;-143.21;71.60;71713.28;5070824;28;20201;-83
2023/09/16 01:30:12;;;;;;;22.13;14.00;;;;;;;-143.21;71.83;71717.25;5070779;28;20201;-82
2023/09/16 01:32:45;;;;;;;17.00;13.65;;;;;;;-143.21;71.96;71717.25;5070585;28;20212;-82
2023/09/16 01:35:15;;;;;;;19.45;13.57;;;;;;;-143.21;71.80;71721.22;5070790;28;20583;-82
2023/09/16 01:37:46;;;;;;;17.10;13.70;;;;;;;-143.21;71.76;71723.19;5070422;28;20275;-82
2023/09/16 01:40:15;;;;;;;16.33;13.32;;;;;;;-143.21;71.83;71733.09;5070716;28;20201;-82
2023/09/16 01:42:44;;;;;;;16.70;13.07;;;;;;;-143.21;71.46;71731.13;5070194;28;20276;-82
2023/09/16 01:45:11;;;;;;;17.40;12.93;;;;;;;-143.21;71.23;71733.09;5069714;28;20224;-83
2023/09/16 01:47:38;;;;;;;15.90;12.73;;;;;;;-143.21;71.42;71741.03;5069850;28;20217;-82
2023/09/16 01:50:07;;;;;;;18.60;13.23;;;;;;;-143.21;71.58;71756.91;5069963;28;20216;-82
2023/09/16 01:52:34;;;;;;;20.35;12.43;;;;;;;-143.21;71.81;71760.88;5069518;28;20197;-82
2023/09/16 01:55:01;;;;;;;17.63;13.40;;;;;;;-143.21;71.45;71748.97;5070011;28;20202;-82
2023/09/16 01:57:28;;;;;;;19.63;12.98;;;;;;;-143.21;70.95;71729.13;5069854;28;20224;-82
2023/09/16 01:59:57;;;;;;;15.35;12.40;;;;;;;-143.21;70.86;71729.13;5070333;28;20206;-82
2023/09/16 02:02:24;;;;;;;18.52;12.90;;;;;;;-143.21;70.58;71721.22;5070082;28;20201;-82
2023/09/16 02:04:50;;;;;;;18.13;12.60;;;;;;;-143.21;70.47;71727.16;5069923;28;20212;-82
2023/09/16 02:07:17;;;;;;;18.42;12.77;;;;;;;-143.21;70.85;71731.13;5069454;28;20704;-82
2023/09/16 02:09:45;;;;;;;18.90;13.05;;;;;;;-143.21;71.18;71743.00;5069375;28;20220;-82
2023/09/16 02:12:11;;;;;;;18.92;13.50;;;;;;;-143.21;70.97;71745.00;5070271;28;20228;-82
2023/09/16 02:14:44;;;;;;;18.90;13.48;;;;;;;-143.21;70.94;71745.00;5069371;28;20589;-82
2023/09/16 02:17:12;;;;;;;17.42;12.93;;;;;;;-143.21;71.08;71756.91;5070218;28;20586;-84
2023/09/16 02:19:39;;;;;;;22.98;13.57;;;;;;;-143.21;71.36;71762.84;5069454;28;20205;-83
2023/09/16 02:22:06;;;;;;;18.45;13.85;;;;;;;-143.21;71.21;71764.81;5067079;28;20660;-83
2023/09/16 02:24:33;;;;;;;22.30;14.43;;;;;;;-143.21;71.26;71766.81;5069493;28;20208;-83
2023/09/16 02:27:00;;;;;;;18.13;13.35;;;;;;;-143.21;71.70;71768.78;5070078;28;20204;-82
2023/09/16 02:29:27;;;;;;;15.90;12.88;;;;;;;-143.21;71.87;71784.66;5069410;28;20205;-83
2023/09/16 02:31:54;;;;;;;21.48;13.20;;;;;;;-143.21;71.64;71784.66;5069692;28;20284;-82
2023/09/16 02:34:22;;;;;;;14.98;11.93;;;;;;;-143.21;71.31;71792.59;5069535;28;20197;-82
2023/09/16 02:36:49;;;;;;;18.20;11.73;;;;;;;-143.21;71.72;71834.22;5067857;28;20228;-82
2023/09/16 02:39:15;;;;;;;16.25;11.50;;;;;;;-143.21;72.11;71850.09;5068746;28;20201;-82
2023/09/16 02:41:42;;;;;;;14.52;11.55;;;;;;;-143.21;72.31;71850.09;5068803;28;20205;-84
2023/09/16 02:44:09;;;;;;;15.65;12.13;;;;;;;-143.21;72.55;71854.06;5069415;28;20206;-83
2023/09/16 02:46:36;;;;;;;17.95;11.70;;;;;;;-143.21;72.91;71863.97;5069734;28;20680;-85
2023/09/16 02:49:03;;;;;;;15.30;11.20;;;;;;;-143.21;72.65;71873.88;5070017;28;20202;-83
2023/09/16 02:51:32;;;;;;;16.30;11.32;;;;;;;-143.21;73.02;71887.78;5069458;28;20228;-83
2023/09/16 02:54:00;;;;;;;19.10;11.23;;;;;;;-143.21;73.30;71895.69;5069759;28;20255;-83
2023/09/16 02:56:27;;;;;;;15.63;10.88;;;;;;;-143.21;73.22;71891.72;5068583;28;20235;-83
2023/09/16 02:58:54;;;;;;;20.33;11.88;;;;;;;-143.21;73.34;71891.72;5072516;28;20197;-82
2023/09/16 03:01:21;;;;;;;16.52;11.25;;;;;;;-143.21;73.59;71897.69;5073230;28;20577;-82
2023/09/16 03:03:47;;;;;;;15.55;11.23;;;;;;;-143.21;73.96;71895.69;5073296;28;20201;-83
2023/09/16 03:06:14;;;;;;;15.90;11.98;;;;;;;-143.21;74.47;71909.56;5072926;28;20244;-83
2023/09/16 03:08:43;;;;;;;24.05;11.48;;;;;;;-143.21;75.19;71933.38;5073191;28;20204;-82
2023/09/16 03:11:09;;;;;;;17.27;11.18;;;;;;;-143.21;75.67;71937.34;5073368;28;20608;-81
2023/09/16 03:13:36;;;;;;;13.90;11.05;;;;;;;-143.21;75.96;71939.31;5072885;28;20205;-82
2023/09/16 03:16:16;;;;;;;17.33;11.75;;;;;;;-143.21;76.17;71941.31;5073314;28;20212;-81
2023/09/16 03:18:45;;;;;;;16.38;11.20;;;;;;;-143.21;75.86;71923.47;5073288;28;20201;-81
2023/09/16 03:21:12;;;;;;;15.10;11.20;;;;;;;-143.21;75.90;71923.47;5072389;28;20294;-82
2023/09/16 03:23:39;;;;;;;18.55;11.63;;;;;;;-143.21;75.75;71921.47;5072473;28;20221;-81
2023/09/16 03:26:09;;;;;;;17.08;12.60;;;;;;;-143.21;75.47;71923.47;5072796;28;20206;-82
2023/09/16 03:28:36;;;;;;;14.75;11.75;;;;;;;-143.21;75.83;71939.31;5071441;28;21274;-82
2023/09/16 03:31:03;;;;;;;15.70;11.95;;;;;;;-143.21;76.18;71949.25;5072025;28;20197;-82
2023/09/16 03:33:30;;;;;;;15.38;12.00;;;;;;;-143.21;76.90;71965.09;5072169;28;20197;-81
2023/09/16 03:35:56;;;;;;;16.90;11.93;;;;;;;-143.21;77.28;71971.06;5071600;28;20212;-81
2023/09/16 03:38:25;;;;;;;17.67;12.75;;;;;;;-143.21;77.63;71977.00;5072237;28;20616;-81
2023/09/16 03:40:51;;;;;;;21.40;12.45;;;;;;;-143.21;77.63;71980.97;5071378;28;20209;-82
2023/09/16 03:43:20;;;;;;;17.05;11.75;;;;;;;-143.21;77.75;71975.00;5069201;28;20197;-81
2023/09/16 03:45:47;;;;;;;19.67;12.65;;;;;;;-143.21;77.56;71963.13;5072563;28;20205;-80
2023/09/16 03:48:13;;;;;;;16.63;12.35;;;;;;;-143.21;77.29;71949.25;5068923;28;20197;-82
2023/09/16 03:50:40;;;;;;;17.40;12.50;;;;;;;-143.21;77.01;71951.22;5072163;28;20213;-83
2023/09/16 03:53:07;;;;;;;16.85;12.88;;;;;;;-143.21;77.77;71943.28;5072070;28;20296;-83
2023/09/16 03:55:35;;;;;;;18.63;13.43;;;;;;;-143.21;77.85;71923.47;5076444;28;20880;-83
2023/09/16 03:58:01;;;;;;;22.50;13.05;;;;;;;-143.21;77.54;71911.56;5078440;28;20225;-81
2023/09/16 04:00:30;;;;;;;17.73;12.07;;;;;;;-143.21;75.72;71893.72;5078864;28;20198;-82
2023/09/16 04:02:57;;;;;;;15.35;12.45;;;;;;;-143.21;75.78;71899.66;5073775;28;20205;-83
2023/09/16 04:05:33;;;;;;;16.17;12.73;;;;;;;-143.21;75.94;71909.56;5073345;28;20232;-83
2023/09/16 04:07:59;;;;;;;22.63;13.32;;;;;;;-143.21;76.14;71917.50;5072173;28;20200;-83
2023/09/16 04:10:26;;;;;;;19.40;12.50;;;;;;;-143.21;76.28;71931.38;5070631;28;20205;-83
2023/09/16 04:12:54;;;;;;;17.90;12.85;;;;;;;-143.21;76.83;71935.34;5071847;28;20221;-83
2023/09/16 04:15:24;;;;;;;16.80;13.32;;;;;;;-143.21;77.12;71941.31;5073371;28;20205;-82
2023/09/16 04:17:52;;;;;;;18.20;14.23;;;;;;;-143.21;77.77;71943.28;5071694;28;20221;-83
2023/09/16 04:20:20;;;;;;;18.55;14.10;;;;;;;-143.21;79.17;71933.38;5071689;28;20255;-83
2023/09/16 04:22:46;;;;;;;18.02;13.45;;;;;;;-143.21;80.57;71927.44;5071853;28;20205;-83
2023/09/16 04:25:15;;;;;;;20.90;14.60;;;;;;;-143.21;81.05;71927.44;5069201;28;20198;-82
2023/09/16 04:27:42;;;;;;;24.52;15.02;;;;;;;-143.21;80.73;71921.47;5071750;28;20690;-82
2023/09/16 04:30:09;;;;;;;19.45;14.80;;;;;;;-143.21;80.76;71919.50;5071871;28;20691;-83
2023/09/16 04:32:36;;;;;;;23.25;15.45;;;;;;;-143.21;81.57;71925.44;5071746;28;21563;-85
2023/09/16 04:35:07;;;;;;;21.90;16.17;;;;;;;-143.21;82.63;71925.44;5071979;28;20197;-84
2023/09/16 04:37:36;;;;;;;21.55;15.60;;;;;;;-143.21;83.35;71931.38;5071518;28;20730;-82
2023/09/16 04:40:05;;;;;;;20.15;15.63;;;;;;;-143.21;83.54;71929.41;5071041;28;20254;-83
2023/09/16 04:42:32;;;;;;;20.75;15.35;;;;;;;-143.21;84.67;71923.47;5071362;28;20197;-82
2023/09/16 04:44:59;;;;;;;20.30;15.40;;;;;;;-143.21;84.86;71927.44;5072102;28;20201;-82
2023/09/16 04:47:27;;;;;;;23.55;15.55;;;;;;;-143.21;84.99;71927.44;5071090;28;20198;-82
2023/09/16 04:49:59;;;;;;;24.13;17.67;;;;;;;-143.21;85.20;71945.28;5070960;28;20209;-83
2023/09/16 04:52:28;;;;;;;21.42;16.75;;;;;;;-143.21;86.30;71947.25;5071064;28;20194;-83
2023/09/16 04:54:55;;;;;;;21.90;16.83;;;;;;;-143.21;86.59;71945.28;5071391;28;20284;-83
2023/09/16 04:57:22;;;;;;;24.00;17.67;;;;;;;-143.21;87.06;71955.19;5072023;28;20221;-84
2023/09/16 04:59:51;;;;;;;24.35;16.80;;;;;;;-143.21;86.88;71969.06;5070685;28;20197;-83
2023/09/16 05:02:18;;;;;;;22.90;17.23;;;;;;;-143.21;87.61;71969.06;5070561;28;20353;-83
2023/09/16 05:04:51;;;;;;;25.60;18.05;;;;;;;-143.21;88.03;71967.09;5068172;28;20197;-83
2023/09/16 05:10:57;;;;;;;23.83;17.35;;;;;;;-143.21;88.32;71963.13;5052098;28;20270;-82
2023/09/16 05:13:26;;;;;;;23.67;17.45;;;;;;;-143.21;88.48;71959.16;5071139;28;20199;-84
2023/09/16 05:15:55;;;;;;;25.25;17.95;;;;;;;-143.21;88.58;71959.16;5070874;28;20189;-84
2023/09/16 05:18:22;;;;;;;27.65;18.00;;;;;;;-143.21;88.49;71953.19;5070638;28;20734;-84
2023/09/16 05:20:51;;;;;;;25.05;18.48;;;;;;;-143.21;88.43;71955.19;5071790;28;20208;-84
2023/09/16 05:23:19;;;;;;;24.10;18.45;;;;;;;-143.21;88.45;71951.22;5070410;28;20205;-83
2023/09/16 05:25:46;;;;;;;22.50;17.27;;;;;;;-143.21;88.72;71961.13;5068078;28;20198;-84
2023/09/16 05:28:15;;;;;;;26.63;19.08;;;;;;;-143.21;88.44;71959.16;5070089;28;20251;-84
2023/09/16 05:30:42;;;;;;;24.55;18.27;;;;;;;-143.21;87.14;71959.16;5070467;28;20660;-84
2023/09/16 05:33:10;;;;;;;25.25;18.08;;;;;;;-143.21;86.43;71969.06;5065837;28;20197;-84
2023/09/16 05:35:37;;;;;;;24.52;18.50;;;;;;;-143.21;86.59;71984.94;5070500;28;20649;-84
2023/09/16 05:38:04;;;;;;;26.60;18.48;;;;;;;-143.21;86.90;71990.88;5070104;28;20225;-85
2023/09/16 05:40:31;;;;;;;29.45;18.80;;;;;;;-143.21;87.30;71988.91;5070398;28;20201;-84
2023/09/16 05:42:58;;;;;;;27.67;19.70;;;;;;;-143.21;88.29;71988.91;5069821;28;20197;-84
2023/09/16 05:45:26;;;;;;;28.52;18.65;;;;;;;-143.21;88.88;71996.81;5069536;28;20197;-87
2023/09/16 05:47:54;;;;;;;22.23;18.23;;;;;;;-143.21;89.59;71988.91;5070026;28;20197;-85
2023/09/16 05:50:22;;;;;;;26.77;19.35;;;;;;;-143.21;88.06;71978.97;5069551;28;20213;-83
2023/09/16 05:52:49;;;;;;;26.20;19.00;;;;;;;-143.21;87.70;71986.91;5069599;28;20201;-84
2023/09/16 05:55:16;;;;;;;30.08;21.40;;;;;;;-143.21;87.43;71986.91;5070574;28;20201;-82
2023/09/16 05:57:43;;;;;;;31.33;22.30;;;;;;;-143.21;87.99;71996.81;5070232;28;20233;-84
2023/09/16 06:00:10;;;;;;;32.83;22.15;;;;;;;-143.21;87.99;72004.75;5071098;28;20635;-86
2023/09/16 06:02:39;;;;;;;31.52;22.27;;;;;;;-143.21;88.03;72010.72;5069746;28;20208;-84
2023/09/16 06:05:07;;;;;;;32.65;23.35;;;;;;;-143.21;88.39;72024.59;5069965;28;20290;-84
2023/09/16 06:07:34;;;;;;;31.98;22.02;;;;;;;-143.21;89.31;72048.38;5069548;28;20601;-84
2023/09/16 06:10:01;;;;;;;33.80;22.60;;;;;;;-143.21;90.39;72034.50;5068323;28;20197;-87
2023/09/16 06:12:28;;;;;;;33.88;21.88;;;;;;;-143.21;90.63;72018.63;5068903;28;20213;-85
2023/09/16 06:14:55;;;;;;;27.83;20.95;;;;;;;-143.21;91.20;72034.50;5069952;28;20216;-86
2023/09/16 06:17:22;;;;;;;26.27;20.45;;;;;;;-143.21;91.76;72032.53;5069314;28;20268;-88
2023/09/16 06:19:54;;;;;;;29.88;21.40;;;;;;;-143.21;92.20;72016.66;5069697;28;20220;-86
2023/09/16 06:22:21;;;;;;;27.55;21.33;;;;;;;-143.21;92.13;72006.75;5069754;28;20204;-85
2023/09/16 06:24:48;;;;;;;28.00;21.00;;;;;;;-143.21;91.58;71982.94;5067936;28;20205;-86
2023/09/16 06:27:15;;;;;;;26.92;21.48;;;;;;;-143.21;91.39;71969.06;5071165;28;20276;-85
2023/09/16 06:29:42;;;;;;;30.27;21.27;;;;;;;-143.21;91.21;71975.00;5069030;28;20270;-85
2023/09/16 06:32:08;;;;;;;29.50;21.65;;;;;;;-143.21;91.76;71982.94;5068911;28;20256;-87
2023/09/16 06:34:35;;;;;;;33.00;23.27;;;;;;;-143.21;91.79;71984.94;5069241;28;20236;-85
2023/09/16 06:37:05;;;;;;;30.42;21.70;;;;;;;-143.21;91.73;71978.97;5069898;28;20288;-85
2023/09/16 06:39:33;;;;;;;33.03;22.15;;;;;;;-143.21;91.00;71984.94;5069406;28;20225;-84
2023/09/16 06:42:00;;;;;;;31.95;22.67;;;;;;;-143.21;91.37;71986.91;5068814;28;20225;-85
2023/09/16 06:44:27;;;;;;;29.33;22.20;;;;;;;-143.21;91.68;71984.94;5068950;28;20205;-85
2023/09/16 06:46:54;;;;;;;29.02;22.17;;;;;;;-143.21;91.82;71998.81;5069102;28;20201;-86
2023/09/16 06:49:20;;;;;;;34.50;24.13;;;;;;;-143.21;92.39;72010.72;5068771;28;20594;-86
2023/09/16 06:51:47;;;;;;;32.08;22.92;;;;;;;-143.21;92.76;72014.69;5066237;28;20201;-86
2023/09/16 06:54:15;;;;;;;31.25;22.38;;;;;;;-143.21;92.06;72008.72;5070528;28;20208;-85
2023/09/16 06:56:42;;;;;;;28.48;20.83;;;;;;;-143.21;89.92;71998.81;5068635;28;20201;-85
2023/09/16 06:59:09;;;;;;;35.67;21.88;;;;;;;-143.21;89.55;71996.81;5068413;28;20229;-85
2023/09/16 07:01:36;;;;;;;37.25;23.02;;;;;;;-143.21;89.07;72010.72;5066109;28;20211;-86
2023/09/16 07:04:03;;;;;;;33.80;23.15;;;;;;;-143.21;89.37;72024.59;5066618;28;20709;-86
2023/09/16 07:06:30;;;;;;;37.05;23.13;;;;;;;-143.21;89.53;72022.59;5067819;28;20283;-87
2023/09/16 07:08:57;;;;;;;39.97;23.25;;;;;;;-143.21;89.84;72018.63;5070558;28;20189;-87
2023/09/16 07:11:25;;;;;;;41.38;24.50;;;;;;;-143.21;90.18;72018.63;5067942;28;20194;-87
2023/09/16 07:13:53;;;;;;;36.30;23.50;;;;;;;-143.21;90.34;72016.66;5067925;28;20205;-86
2023/09/16 07:16:20;;;;;;;35.13;24.85;;;;;;;-143.21;90.27;72022.59;5068224;28;20207;-87
2023/09/16 07:18:47;;;;;;;42.42;25.80;;;;;;;-143.21;90.29;72012.69;5068430;28;20229;-88
2023/09/16 07:21:14;;;;;;;39.58;25.30;;;;;;;-143.21;90.03;72006.75;5068420;28;20583;-84
2023/09/16 07:23:41;;;;;;;39.58;25.00;;;;;;;-143.21;90.87;72010.72;5068057;28;20209;-88
2023/09/16 07:26:08;;;;;;;35.65;26.10;;;;;;;-143.21;91.62;72006.75;5068571;28;20209;-87
2023/09/16 07:28:36;;;;;;;33.70;26.15;;;;;;;-143.21;92.13;71998.81;5068586;28;20201;-87
2023/09/16 07:31:03;;;;;;;45.60;29.05;;;;;;;-143.21;92.34;71990.88;5067977;28;20210;-87
2023/09/16 07:33:30;;;;;;;36.13;27.17;;;;;;;-143.21;92.38;71978.97;5068255;28;20201;-86
2023/09/16 07:35:57;;;;;;;37.05;27.10;;;;;;;-143.21;91.69;71961.13;5068640;28;20225;-87
2023/09/16 07:38:24;;;;;;;38.97;28.52;;;;;;;-143.21;92.05;71961.13;5067527;28;20221;-87
2023/09/16 07:40:53;;;;;;;31.60;23.88;;;;;;;-143.21;91.10;71947.25;5068652;28;20197;-86
2023/09/16 07:43:20;;;;;;;34.55;26.08;;;;;;;-143.21;90.64;71953.19;5067956;28;20197;-87
2023/09/16 07:45:48;;;;;;;34.28;24.80;;;;;;;-143.21;90.24;71963.13;5072136;28;20201;-86
2023/09/16 07:48:17;;;;;;;40.25;26.77;;;;;;;-143.21;90.03;71961.13;5072628;28;20237;-81
2023/09/16 07:50:43;;;;;;;35.67;26.20;;;;;;;-143.21;90.02;71953.19;5071907;28;20201;-82
2023/09/16 07:53:11;;;;;;;41.53;26.90;;;;;;;-143.21;89.99;71951.22;5072156;28;20201;-84
2023/09/16 07:55:41;;;;;;;35.35;26.60;;;;;;;-143.21;89.95;71943.28;5071485;28;20209;-82
2023/09/16 07:58:07;;;;;;;35.25;26.33;;;;;;;-143.21;90.09;71941.31;5071235;28;20237;-82
2023/09/16 08:00:35;;;;;;;35.10;27.45;;;;;;;-143.21;90.56;71939.31;5075431;28;20197;-87
2023/09/16 08:03:04;;;;;;;35.50;27.35;;;;;;;-143.21;90.93;71935.34;5080349;28;20288;-84
2023/09/16 08:05:31;;;;;;;34.03;26.73;;;;;;;-143.21;90.57;71923.47;5075665;28;20259;-84
2023/09/16 08:07:57;;;;;;;31.20;25.10;;;;;;;-143.21;89.48;71917.50;5073647;28;20288;-82
2023/09/16 08:10:24;;;;;;;36.65;26.20;;;;;;;-143.21;89.21;71911.56;5076548;28;20217;-82
2023/09/16 08:12:51;;;;;;;30.25;24.92;;;;;;;-143.21;89.35;71899.66;5078869;28;20583;-83
2023/09/16 08:15:18;;;;;;;32.65;24.08;;;;;;;-143.21;88.52;71891.72;5076119;28;20211;-82
2023/09/16 08:17:45;;;;;;;34.60;25.90;;;;;;;-143.21;87.60;71879.84;5072736;28;20541;-84
2023/09/16 08:20:15;;;;;;;37.58;27.25;;;;;;;-143.21;87.88;71871.91;5071056;28;20700;-83
2023/09/16 08:22:42;;;;;;;36.22;26.92;;;;;;;-143.21;88.11;71869.91;5070946;28;20213;-84
2023/09/16 08:25:09;;;;;;;32.38;26.20;;;;;;;-143.21;87.37;71860.00;5071311;28;20212;-84
2023/09/16 08:27:36;;;;;;;30.92;24.70;;;;;;;-143.21;87.65;71856.03;5069992;28;20212;-83
2023/09/16 08:30:03;;;;;;;38.63;25.67;;;;;;;-143.21;86.72;71854.06;5069629;28;20205;-84
2023/09/16 08:32:30;;;;;;;34.22;26.20;;;;;;;-143.21;86.11;71842.16;5069483;28;20200;-82
2023/09/16 08:34:57;;;;;;;32.55;25.20;;;;;;;-143.21;85.50;71838.19;5071051;28;20205;-82
2023/09/16 08:37:25;;;;;;;34.22;25.08;;;;;;;-143.21;85.31;71836.22;5070718;28;20629;-85
2023/09/16 08:39:52;;;;;;;33.35;25.05;;;;;;;-143.21;85.06;71840.19;5071227;28;20707;-84
2023/09/16 08:42:26;;;;;;;30.02;23.70;;;;;;;-143.21;85.53;71848.09;5068899;28;20220;-82
2023/09/16 08:44:54;;;;;;;29.00;23.33;;;;;;;-143.21;84.34;71854.06;5069995;28;20239;-82
2023/09/16 08:47:27;;;;;;;28.25;22.70;;;;;;;-143.21;84.65;71860.00;5073698;28;20216;-85
2023/09/16 08:50:01;;;;;;;31.70;24.20;;;;;;;-143.21;84.78;71863.97;5072480;28;20198;-85
2023/09/16 08:52:39;;;;;;;34.78;25.10;;;;;;;-143.21;84.39;71873.88;5075741;28;20284;-86
2023/09/16 08:55:13;;;;;;;29.80;24.02;;;;;;;-143.21;84.91;71887.78;5072798;28;20209;-86
2023/09/16 08:57:42;;;;;;;30.73;23.95;;;;;;;-143.21;86.04;71889.75;5070948;28;21549;-85
2023/09/16 09:00:17;;;;;;;32.35;23.73;;;;;;;-143.21;87.76;71905.63;5071885;28;20233;-86
2023/09/16 09:02:46;;;;;;;32.80;24.70;;;;;;;-143.21;88.06;71911.56;5070477;28;20287;-85
2023/09/16 09:05:17;;;;;;;28.80;23.80;;;;;;;-143.21;87.60;71905.63;5068130;28;20221;-85
2023/09/16 09:07:45;;;;;;;32.75;25.73;;;;;;;-143.21;87.97;71895.69;5070278;28;20213;-84
2023/09/16 09:10:15;;;;;;;30.92;25.05;;;;;;;-143.21;87.75;71893.72;5068209;28;20202;-86
2023/09/16 09:12:44;;;;;;;29.98;24.77;;;;;;;-143.21;87.58;71879.84;5069392;28;20220;-83
2023/09/16 09:15:13;;;;;;;33.53;24.58;;;;;;;-143.21;87.91;71862.00;5069888;28;20233;-86
2023/09/16 09:17:42;;;;;;;29.48;23.90;;;;;;;-143.21;85.63;71822.34;5069189;28;20768;-84
2023/09/16 09:20:15;;;;;;;28.52;22.83;;;;;;;-143.21;85.03;71790.59;5070562;28;20630;-84
2023/09/16 09:22:43;;;;;;;27.75;22.58;;;;;;;-143.21;84.04;71754.91;5070028;28;20210;-87
2023/09/16 09:25:14;;;;;;;25.33;21.60;;;;;;;-143.21;82.70;71717.25;5069723;28;20220;-84
2023/09/16 09:27:41;;;;;;;20.60;17.08;;;;;;;-143.21;77.22;71699.41;5070242;28;20223;-83
2023/09/16 09:30:10;;;;;;;18.92;16.50;;;;;;;-143.21;75.77;71703.34;5069900;28;20297;-85
2023/09/16 09:32:37;;;;;;;19.38;16.45;;;;;;;-143.21;77.17;71697.41;5068992;28;20237;-85
2023/09/16 09:35:07;;;;;;;19.70;16.58;;;;;;;-143.21;76.84;71691.47;5069839;28;20209;-86
2023/09/16 09:37:34;;;;;;;19.90;15.80;;;;;;;-143.21;77.75;71683.53;5070107;28;21717;-84
2023/09/16 09:40:06;;;;;;;22.38;16.30;;;;;;;-143.21;77.77;71667.66;5071349;28;20221;-81
2023/09/16 09:45:36;;;;;;;21.55;14.93;;;;;;;-143.21;73.78;71647.84;5068165;28;20638;-85
2023/09/16 09:48:07;;;;;;;19.30;15.40;;;;;;;-143.21;74.36;71643.88;5071201;28;20232;-87
2023/09/16 09:50:34;;;;;;;16.38;14.52;;;;;;;-143.21;72.44;71637.94;5071085;28;20301;-86
2023/09/16 09:53:02;;;;;;;18.80;13.80;;;;;;;-143.21;71.05;71620.09;5071364;28;20207;-87
2023/09/16 09:55:31;;;;;;;22.73;15.07;;;;;;;-143.21;70.89;71596.28;5072916;28;20201;-87
2023/09/16 09:58:09;;;;;;;17.85;15.00;;;;;;;-143.21;70.42;71560.59;5074740;28;20633;-85
2023/09/16 10:00:36;;;;;;;17.30;14.35;;;;;;;-143.21;69.37;71542.75;5073576;28;20245;-89
2023/09/16 10:03:03;;;;;;;16.15;13.88;;;;;;;-143.21;68.71;71513.03;5077769;28;20216;-89
2023/09/16 10:05:36;;;;;;;16.42;13.52;;;;;;;-143.21;68.53;71471.38;5081727;28;20264;-89
2023/09/16 10:08:14;;;;;;;19.52;12.32;;;;;;;-143.21;64.68;71455.53;5072368;28;20291;-87
2023/09/16 10:13:24;;;;;;;14.30;11.20;;;;;;;-143.21;64.85;71485.25;5065281;28;20205;-88
2023/09/16 10:15:51;;;;;;;13.32;11.93;;;;;;;-143.21;65.77;71485.25;5073769;28;20215;-88
2023/09/16 10:18:23;;;;;;;15.35;11.95;;;;;;;-143.21;66.56;71435.69;5076374;28;20228;-88
2023/09/16 10:20:51;;;;;;;11.82;10.10;;;;;;;-143.21;63.64;71421.81;5068480;28;20205;-87
2023/09/16 10:23:18;;;;;;;12.32;10.05;;;;;;;-143.21;64.63;71431.72;5068906;28;20207;-87
2023/09/16 10:25:46;;;;;;;14.35;11.02;;;;;;;-143.21;64.46;71441.63;5070480;28;20201;-88
2023/09/16 10:28:13;;;;;;;13.10;10.40;;;;;;;-143.21;64.84;71463.44;5069848;28;20236;-88
2023/09/16 10:30:56;;;;;;;18.63;10.18;;;;;;;-143.21;63.43;71471.38;5069566;28;20699;-89
2023/09/16 10:33:25;;;;;;;13.93;11.10;;;;;;;-143.21;63.67;71483.28;5070204;28;20591;-88
2023/09/16 10:35:53;;;;;;;12.38;10.43;;;;;;;-143.21;65.42;71475.34;5070602;28;20288;-89
2023/09/16 10:38:25;;;;;;;13.60;10.20;;;;;;;-143.21;64.72;71471.38;5069951;28;20660;-89
2023/09/16 10:40:54;;;;;;;12.27;10.63;;;;;;;-143.21;63.25;71487.25;5070243;28;20208;-88
2023/09/16 10:43:25;;;;;;;13.65;10.35;;;;;;;-143.21;64.28;71493.19;5072818;28;20217;-89
2023/09/16 10:45:57;;;;;;;13.32;10.75;;;;;;;-143.21;63.99;71499.13;5069886;28;20215;-91
2023/09/16 10:48:28;;;;;;;15.10;10.38;;;;;;;-143.21;63.22;71463.44;5069689;28;20208;-89
2023/09/16 10:51:02;;;;;;;12.07;9.82;;;;;;;-143.21;63.78;71449.56;5070477;28;20324;-89
2023/09/16 10:53:36;;;;;;;12.27;10.02;;;;;;;-143.21;63.88;71405.94;5070195;28;20236;-91
2023/09/16 10:56:15;;;;;;;14.07;9.52;;;;;;;-143.21;61.42;71342.50;5071601;28;20198;-90
2023/09/16 10:58:47;;;;;;;11.93;9.35;;;;;;;-143.21;61.48;71257.25;5072382;28;20594;-85
2023/09/16 11:01:19;;;;;;;12.27;8.35;;;;;;;-143.21;58.70;71172.00;5067843;28;20630;-88
2023/09/16 11:03:53;;;;;;;14.13;7.93;;;;;;;-143.21;56.60;71100.66;5072956;28;20201;-91
2023/09/16 11:06:21;;;;;;;10.70;8.18;;;;;;;-143.21;54.68;71055.06;5070299;28;20813;-88
2023/09/16 11:08:48;;;;;;;10.27;6.88;;;;;;;-143.21;53.19;71005.50;5070333;28;20633;-85
2023/09/16 11:11:27;;;;;;;10.48;7.22;;;;;;;-143.21;54.01;70940.06;5070659;28;20221;-85
2023/09/16 11:13:57;;;;;;;9.98;6.72;;;;;;;-143.21;52.65;70872.66;5071179;28;20197;-88
2023/09/16 11:16:26;;;;;;;7.55;5.82;;;;;;;-143.21;50.90;70821.13;5068672;28;20705;-85